DTTZ/TOE METAR and TAF weather

Enter ICAO airport designator
Station Type Date Time Source
DTTZ METAR 2018/07/21 11:00 UTC NOAA

DTTZ 211100Z 11009KT 080V150 CAVOK 40/07 Q1013 NOSIG


Station Type Date Time Source
DTTZ Decoded METAR 2018/07/21 11:00 UTC NOAA

Tozeur, Tunisia (DTTZ) 33-55N 008-06E 93M
Jul 21, 2018 - 07:00 AM EDT / 2018.07.21 1100 UTC
Wind: from the ESE (110 degrees) at 10 MPH (9 KT) (direction variable):0
Visibility: greater than 7 mile(s):0
Temperature: 104 F (40 C)
Dew Point: 44 F (7 C)
Relative Humidity: 13%
Pressure (altimeter): 29.91 in. Hg (1013 hPa)
ob: DTTZ 211100Z 11009KT 080V150 CAVOK 40/07 Q1013 NOSIG
cycle: 11

Station Type Date Time Source
DTTZ TAF 2018/07/21 12:30 UTC NOAA

TAF DTTZ 211110Z 2112/2212 10010KT CAVOK
BECMG 2113/2115 18006KT


Example: see airport list